sensor_id;sensor_type;location;lat;lon;timestamp;P1;durP1;ratioP1;P2;durP2;ratioP2
76896;SDS011;65856;52.178;21.176;2023-12-04T00:02:20;23.80;;;11.60;;
76896;SDS011;65856;52.178;21.176;2023-12-04T00:04:45;23.60;;;11.50;;
76896;SDS011;65856;52.178;21.176;2023-12-04T00:07:11;26.70;;;12.10;;
76896;SDS011;65856;52.178;21.176;2023-12-04T00:09:36;24.60;;;11.80;;
76896;SDS011;65856;52.178;21.176;2023-12-04T00:12:01;24.60;;;11.70;;
76896;SDS011;65856;52.178;21.176;2023-12-04T00:14:27;20.10;;;10.20;;
76896;SDS011;65856;52.178;21.176;2023-12-04T00:16:52;23.70;;;10.80;;
76896;SDS011;65856;52.178;21.176;2023-12-04T00:19:18;25.40;;;11.80;;
76896;SDS011;65856;52.178;21.176;2023-12-04T00:21:43;24.60;;;11.00;;
76896;SDS011;65856;52.178;21.176;2023-12-04T00:24:09;22.50;;;11.50;;
76896;SDS011;65856;52.178;21.176;2023-12-04T00:26:34;21.90;;;11.20;;
76896;SDS011;65856;52.178;21.176;2023-12-04T00:28:59;23.00;;;11.20;;
76896;SDS011;65856;52.178;21.176;2023-12-04T00:31:25;25.40;;;12.00;;
76896;SDS011;65856;52.178;21.176;2023-12-04T00:33:51;24.90;;;11.20;;
76896;SDS011;65856;52.178;21.176;2023-12-04T00:36:16;24.60;;;11.70;;
76896;SDS011;65856;52.178;21.176;2023-12-04T00:38:41;25.60;;;12.10;;
76896;SDS011;65856;52.178;21.176;2023-12-04T00:41:07;23.30;;;11.10;;
76896;SDS011;65856;52.178;21.176;2023-12-04T00:43:32;21.10;;;11.20;;
76896;SDS011;65856;52.178;21.176;2023-12-04T00:45:58;23.30;;;11.90;;
76896;SDS011;65856;52.178;21.176;2023-12-04T00:48:23;26.00;;;12.20;;
76896;SDS011;65856;52.178;21.176;2023-12-04T00:50:48;25.60;;;11.40;;
76896;SDS011;65856;52.178;21.176;2023-12-04T00:53:15;23.50;;;12.10;;
76896;SDS011;65856;52.178;21.176;2023-12-04T00:55:41;23.60;;;11.50;;
76896;SDS011;65856;52.178;21.176;2023-12-04T00:58:06;22.00;;;10.60;;
76896;SDS011;65856;52.178;21.176;2023-12-04T01:00:32;24.40;;;12.50;;
76896;SDS011;65856;52.178;21.176;2023-12-04T01:02:57;25.10;;;12.10;;
76896;SDS011;65856;52.178;21.176;2023-12-04T01:05:22;23.00;;;11.70;;
76896;SDS011;65856;52.178;21.176;2023-12-04T01:07:48;27.30;;;12.30;;
76896;SDS011;65856;52.178;21.176;2023-12-04T01:10:13;25.40;;;12.10;;
76896;SDS011;65856;52.178;21.176;2023-12-04T01:12:39;18.90;;;9.90;;
76896;SDS011;65856;52.178;21.176;2023-12-04T01:15:04;24.70;;;12.00;;
76896;SDS011;65856;52.178;21.176;2023-12-04T01:17:30;25.70;;;12.70;;
76896;SDS011;65856;52.178;21.176;2023-12-04T01:19:55;25.80;;;11.60;;
76896;SDS011;65856;52.178;21.176;2023-12-04T01:22:22;29.60;;;13.10;;
76896;SDS011;65856;52.178;21.176;2023-12-04T01:24:47;26.60;;;12.30;;
76896;SDS011;65856;52.178;21.176;2023-12-04T01:27:13;23.50;;;11.60;;
76896;SDS011;65856;52.178;21.176;2023-12-04T01:29:38;26.30;;;12.30;;
76896;SDS011;65856;52.178;21.176;2023-12-04T01:32:04;27.50;;;12.10;;
76896;SDS011;65856;52.178;21.176;2023-12-04T01:34:30;23.50;;;11.90;;
76896;SDS011;65856;52.178;21.176;2023-12-04T01:36:55;27.30;;;13.10;;
76896;SDS011;65856;52.178;21.176;2023-12-04T01:39:20;27.30;;;13.00;;
76896;SDS011;65856;52.178;21.176;2023-12-04T01:41:46;25.70;;;12.70;;
76896;SDS011;65856;52.178;21.176;2023-12-04T01:44:11;28.10;;;13.70;;
76896;SDS011;65856;52.178;21.176;2023-12-04T01:46:37;27.40;;;12.50;;
76896;SDS011;65856;52.178;21.176;2023-12-04T01:49:02;25.10;;;13.40;;
76896;SDS011;65856;52.178;21.176;2023-12-04T01:51:28;25.90;;;12.30;;
76896;SDS011;65856;52.178;21.176;2023-12-04T01:53:55;23.70;;;11.30;;
76896;SDS011;65856;52.178;21.176;2023-12-04T01:56:23;24.10;;;12.00;;
76896;SDS011;65856;52.178;21.176;2023-12-04T01:58:49;24.10;;;12.30;;
76896;SDS011;65856;52.178;21.176;2023-12-04T02:01:14;22.60;;;11.70;;
76896;SDS011;65856;52.178;21.176;2023-12-04T02:03:41;25.90;;;11.20;;
76896;SDS011;65856;52.178;21.176;2023-12-04T02:06:07;24.80;;;12.10;;
76896;SDS011;65856;52.178;21.176;2023-12-04T02:08:34;24.10;;;11.90;;
76896;SDS011;65856;52.178;21.176;2023-12-04T02:11:00;22.30;;;11.10;;
76896;SDS011;65856;52.178;21.176;2023-12-04T02:13:26;22.30;;;10.50;;
76896;SDS011;65856;52.178;21.176;2023-12-04T02:15:53;22.40;;;10.80;;
76896;SDS011;65856;52.178;21.176;2023-12-04T02:18:20;20.50;;;10.90;;
76896;SDS011;65856;52.178;21.176;2023-12-04T02:20:47;19.00;;;9.70;;
76896;SDS011;65856;52.178;21.176;2023-12-04T02:23:12;21.70;;;10.30;;
76896;SDS011;65856;52.178;21.176;2023-12-04T02:25:38;20.10;;;10.70;;
76896;SDS011;65856;52.178;21.176;2023-12-04T02:28:07;19.70;;;9.90;;
76896;SDS011;65856;52.178;21.176;2023-12-04T02:30:37;20.10;;;9.80;;
76896;SDS011;65856;52.178;21.176;2023-12-04T02:33:05;21.60;;;9.90;;
76896;SDS011;65856;52.178;21.176;2023-12-04T02:35:33;17.50;;;9.00;;
76896;SDS011;65856;52.178;21.176;2023-12-04T02:38:02;18.80;;;9.50;;
76896;SDS011;65856;52.178;21.176;2023-12-04T02:40:28;17.50;;;8.10;;
76896;SDS011;65856;52.178;21.176;2023-12-04T02:42:54;16.60;;;8.10;;
76896;SDS011;65856;52.178;21.176;2023-12-04T02:45:19;17.50;;;8.40;;
76896;SDS011;65856;52.178;21.176;2023-12-04T02:47:45;16.50;;;8.00;;
76896;SDS011;65856;52.178;21.176;2023-12-04T02:50:10;17.30;;;8.50;;
76896;SDS011;65856;52.178;21.176;2023-12-04T02:52:35;18.60;;;9.60;;
76896;SDS011;65856;52.178;21.176;2023-12-04T02:55:01;15.90;;;7.90;;
76896;SDS011;65856;52.178;21.176;2023-12-04T02:57:26;15.00;;;8.20;;
76896;SDS011;65856;52.178;21.176;2023-12-04T02:59:52;14.30;;;7.60;;
76896;SDS011;65856;52.178;21.176;2023-12-04T03:02:18;10.20;;;5.50;;
76896;SDS011;65856;52.178;21.176;2023-12-04T03:04:43;13.70;;;7.10;;
76896;SDS011;65856;52.178;21.176;2023-12-04T03:07:08;12.40;;;6.60;;
76896;SDS011;65856;52.178;21.176;2023-12-04T03:09:34;14.70;;;6.90;;
76896;SDS011;65856;52.178;21.176;2023-12-04T03:11:59;10.70;;;6.30;;
76896;SDS011;65856;52.178;21.176;2023-12-04T03:14:24;11.50;;;6.80;;
76896;SDS011;65856;52.178;21.176;2023-12-04T03:16:50;13.00;;;6.40;;
76896;SDS011;65856;52.178;21.176;2023-12-04T03:19:15;10.40;;;6.10;;
76896;SDS011;65856;52.178;21.176;2023-12-04T03:21:41;13.70;;;6.70;;
76896;SDS011;65856;52.178;21.176;2023-12-04T03:24:06;14.80;;;6.80;;
76896;SDS011;65856;52.178;21.176;2023-12-04T03:26:31;14.40;;;7.40;;
76896;SDS011;65856;52.178;21.176;2023-12-04T03:28:57;11.40;;;6.40;;
76896;SDS011;65856;52.178;21.176;2023-12-04T03:31:23;13.00;;;6.70;;
76896;SDS011;65856;52.178;21.176;2023-12-04T03:33:48;15.20;;;7.10;;
76896;SDS011;65856;52.178;21.176;2023-12-04T03:36:13;14.40;;;7.20;;
76896;SDS011;65856;52.178;21.176;2023-12-04T03:38:39;13.50;;;6.60;;
76896;SDS011;65856;52.178;21.176;2023-12-04T03:41:04;14.20;;;6.70;;
76896;SDS011;65856;52.178;21.176;2023-12-04T03:43:30;13.50;;;6.90;;
76896;SDS011;65856;52.178;21.176;2023-12-04T03:45:55;12.20;;;7.00;;
76896;SDS011;65856;52.178;21.176;2023-12-04T03:48:21;13.90;;;7.20;;
76896;SDS011;65856;52.178;21.176;2023-12-04T03:50:46;13.90;;;7.10;;
76896;SDS011;65856;52.178;21.176;2023-12-04T03:53:12;12.90;;;7.00;;
76896;SDS011;65856;52.178;21.176;2023-12-04T03:55:37;14.80;;;7.70;;
76896;SDS011;65856;52.178;21.176;2023-12-04T03:58:03;17.20;;;8.80;;
76896;SDS011;65856;52.178;21.176;2023-12-04T04:00:29;14.60;;;7.50;;
76896;SDS011;65856;52.178;21.176;2023-12-04T04:02:54;16.40;;;8.00;;
76896;SDS011;65856;52.178;21.176;2023-12-04T04:05:19;17.00;;;7.80;;
76896;SDS011;65856;52.178;21.176;2023-12-04T04:07:45;15.30;;;7.70;;
76896;SDS011;65856;52.178;21.176;2023-12-04T04:10:10;14.60;;;7.80;;
76896;SDS011;65856;52.178;21.176;2023-12-04T04:12:37;15.40;;;7.50;;
76896;SDS011;65856;52.178;21.176;2023-12-04T04:15:03;14.00;;;7.30;;
76896;SDS011;65856;52.178;21.176;2023-12-04T04:17:29;16.30;;;8.10;;
76896;SDS011;65856;52.178;21.176;2023-12-04T04:19:54;15.00;;;7.60;;
76896;SDS011;65856;52.178;21.176;2023-12-04T04:22:20;13.00;;;6.80;;
76896;SDS011;65856;52.178;21.176;2023-12-04T04:24:47;17.10;;;7.90;;
76896;SDS011;65856;52.178;21.176;2023-12-04T04:27:13;15.80;;;7.80;;
76896;SDS011;65856;52.178;21.176;2023-12-04T04:29:38;17.40;;;8.40;;
76896;SDS011;65856;52.178;21.176;2023-12-04T04:32:04;19.20;;;8.20;;
76896;SDS011;65856;52.178;21.176;2023-12-04T04:34:30;16.80;;;8.20;;
76896;SDS011;65856;52.178;21.176;2023-12-04T04:36:55;15.70;;;8.40;;
76896;SDS011;65856;52.178;21.176;2023-12-04T04:39:20;15.70;;;8.70;;
76896;SDS011;65856;52.178;21.176;2023-12-04T04:41:46;18.80;;;8.50;;
76896;SDS011;65856;52.178;21.176;2023-12-04T04:44:11;18.30;;;8.90;;
76896;SDS011;65856;52.178;21.176;2023-12-04T04:46:37;17.20;;;7.90;;
76896;SDS011;65856;52.178;21.176;2023-12-04T04:49:02;19.30;;;9.50;;
76896;SDS011;65856;52.178;21.176;2023-12-04T04:51:31;18.30;;;9.20;;
76896;SDS011;65856;52.178;21.176;2023-12-04T04:53:57;19.30;;;9.00;;
76896;SDS011;65856;52.178;21.176;2023-12-04T04:56:23;17.00;;;8.50;;
76896;SDS011;65856;52.178;21.176;2023-12-04T04:58:48;17.30;;;8.00;;
76896;SDS011;65856;52.178;21.176;2023-12-04T05:01:14;17.90;;;9.10;;
76896;SDS011;65856;52.178;21.176;2023-12-04T05:03:39;19.10;;;9.40;;
76896;SDS011;65856;52.178;21.176;2023-12-04T05:06:05;17.80;;;9.20;;
76896;SDS011;65856;52.178;21.176;2023-12-04T05:08:31;18.00;;;8.90;;
76896;SDS011;65856;52.178;21.176;2023-12-04T05:10:56;17.80;;;9.20;;
76896;SDS011;65856;52.178;21.176;2023-12-04T05:13:21;19.20;;;8.90;;
76896;SDS011;65856;52.178;21.176;2023-12-04T05:15:47;20.10;;;9.60;;
76896;SDS011;65856;52.178;21.176;2023-12-04T05:18:12;18.00;;;9.00;;
76896;SDS011;65856;52.178;21.176;2023-12-04T05:20:37;18.70;;;9.50;;
76896;SDS011;65856;52.178;21.176;2023-12-04T05:23:03;21.90;;;9.20;;
76896;SDS011;65856;52.178;21.176;2023-12-04T05:25:28;22.60;;;9.70;;
76896;SDS011;65856;52.178;21.176;2023-12-04T05:27:53;17.20;;;8.20;;
76896;SDS011;65856;52.178;21.176;2023-12-04T05:30:19;17.40;;;9.10;;
76896;SDS011;65856;52.178;21.176;2023-12-04T05:32:44;17.00;;;8.40;;
76896;SDS011;65856;52.178;21.176;2023-12-04T05:35:10;19.00;;;8.40;;
76896;SDS011;65856;52.178;21.176;2023-12-04T05:37:35;19.10;;;8.90;;
76896;SDS011;65856;52.178;21.176;2023-12-04T05:40:01;14.40;;;8.00;;
76896;SDS011;65856;52.178;21.176;2023-12-04T05:42:26;16.30;;;7.70;;
76896;SDS011;65856;52.178;21.176;2023-12-04T05:44:51;17.00;;;8.80;;
76896;SDS011;65856;52.178;21.176;2023-12-04T05:47:20;17.40;;;9.20;;
76896;SDS011;65856;52.178;21.176;2023-12-04T05:49:46;18.80;;;8.00;;
76896;SDS011;65856;52.178;21.176;2023-12-04T05:52:12;15.90;;;8.00;;
76896;SDS011;65856;52.178;21.176;2023-12-04T05:54:37;19.00;;;8.60;;
76896;SDS011;65856;52.178;21.176;2023-12-04T05:57:03;17.60;;;8.90;;
76896;SDS011;65856;52.178;21.176;2023-12-04T05:59:28;19.00;;;9.10;;
76896;SDS011;65856;52.178;21.176;2023-12-04T06:01:53;18.50;;;9.20;;
76896;SDS011;65856;52.178;21.176;2023-12-04T06:04:19;18.20;;;9.60;;
76896;SDS011;65856;52.178;21.176;2023-12-04T06:06:44;19.20;;;9.40;;
76896;SDS011;65856;52.178;21.176;2023-12-04T06:09:10;16.70;;;8.70;;
76896;SDS011;65856;52.178;21.176;2023-12-04T06:11:35;18.80;;;9.30;;
76896;SDS011;65856;52.178;21.176;2023-12-04T06:14:00;19.30;;;9.40;;
76896;SDS011;65856;52.178;21.176;2023-12-04T06:16:26;23.40;;;11.00;;
76896;SDS011;65856;52.178;21.176;2023-12-04T06:18:51;20.30;;;9.70;;
76896;SDS011;65856;52.178;21.176;2023-12-04T06:21:17;18.70;;;8.70;;
76896;SDS011;65856;52.178;21.176;2023-12-04T06:23:43;20.50;;;9.30;;
76896;SDS011;65856;52.178;21.176;2023-12-04T06:26:10;21.10;;;10.60;;
76896;SDS011;65856;52.178;21.176;2023-12-04T06:28:37;21.50;;;9.30;;
76896;SDS011;65856;52.178;21.176;2023-12-04T06:31:03;20.80;;;10.10;;
76896;SDS011;65856;52.178;21.176;2023-12-04T06:33:29;21.80;;;9.80;;
76896;SDS011;65856;52.178;21.176;2023-12-04T06:35:55;21.30;;;10.00;;
76896;SDS011;65856;52.178;21.176;2023-12-04T06:38:24;20.70;;;10.50;;
76896;SDS011;65856;52.178;21.176;2023-12-04T06:40:50;23.20;;;10.80;;
76896;SDS011;65856;52.178;21.176;2023-12-04T06:43:16;24.20;;;11.90;;
76896;SDS011;65856;52.178;21.176;2023-12-04T06:45:44;23.10;;;10.50;;
76896;SDS011;65856;52.178;21.176;2023-12-04T06:48:13;26.10;;;11.90;;
76896;SDS011;65856;52.178;21.176;2023-12-04T06:50:38;21.00;;;9.60;;
76896;SDS011;65856;52.178;21.176;2023-12-04T06:53:05;25.60;;;11.20;;
76896;SDS011;65856;52.178;21.176;2023-12-04T06:55:31;22.90;;;11.20;;
76896;SDS011;65856;52.178;21.176;2023-12-04T06:57:56;25.50;;;11.40;;
76896;SDS011;65856;52.178;21.176;2023-12-04T07:00:22;22.60;;;10.60;;
76896;SDS011;65856;52.178;21.176;2023-12-04T07:02:47;24.20;;;10.80;;
76896;SDS011;65856;52.178;21.176;2023-12-04T07:05:12;24.30;;;11.30;;
76896;SDS011;65856;52.178;21.176;2023-12-04T07:07:38;20.00;;;10.30;;
76896;SDS011;65856;52.178;21.176;2023-12-04T07:10:04;22.40;;;10.40;;
76896;SDS011;65856;52.178;21.176;2023-12-04T07:12:29;24.20;;;11.20;;
76896;SDS011;65856;52.178;21.176;2023-12-04T07:14:55;21.10;;;10.40;;
76896;SDS011;65856;52.178;21.176;2023-12-04T07:17:20;23.50;;;10.80;;
76896;SDS011;65856;52.178;21.176;2023-12-04T07:19:47;22.70;;;11.00;;
76896;SDS011;65856;52.178;21.176;2023-12-04T07:22:12;21.90;;;9.90;;
76896;SDS011;65856;52.178;21.176;2023-12-04T07:24:38;22.50;;;10.50;;
76896;SDS011;65856;52.178;21.176;2023-12-04T07:27:04;24.60;;;11.30;;
76896;SDS011;65856;52.178;21.176;2023-12-04T07:29:29;23.60;;;11.10;;
76896;SDS011;65856;52.178;21.176;2023-12-04T07:31:55;21.60;;;10.60;;
76896;SDS011;65856;52.178;21.176;2023-12-04T07:34:20;21.20;;;9.70;;
76896;SDS011;65856;52.178;21.176;2023-12-04T07:36:46;27.80;;;11.60;;
76896;SDS011;65856;52.178;21.176;2023-12-04T07:39:13;22.40;;;10.60;;
76896;SDS011;65856;52.178;21.176;2023-12-04T07:41:40;23.20;;;10.90;;
76896;SDS011;65856;52.178;21.176;2023-12-04T07:44:05;23.90;;;11.50;;
76896;SDS011;65856;52.178;21.176;2023-12-04T07:46:30;24.00;;;11.40;;
76896;SDS011;65856;52.178;21.176;2023-12-04T07:48:56;22.00;;;9.70;;
76896;SDS011;65856;52.178;21.176;2023-12-04T07:51:21;26.00;;;11.50;;
76896;SDS011;65856;52.178;21.176;2023-12-04T07:53:47;28.30;;;12.30;;
76896;SDS011;65856;52.178;21.176;2023-12-04T07:56:13;25.30;;;11.80;;
76896;SDS011;65856;52.178;21.176;2023-12-04T07:58:38;27.40;;;12.50;;
76896;SDS011;65856;52.178;21.176;2023-12-04T08:01:04;26.90;;;12.10;;
76896;SDS011;65856;52.178;21.176;2023-12-04T08:03:31;44.80;;;17.10;;
76896;SDS011;65856;52.178;21.176;2023-12-04T08:05:56;55.90;;;18.90;;
76896;SDS011;65856;52.178;21.176;2023-12-04T08:08:22;36.40;;;15.10;;
76896;SDS011;65856;52.178;21.176;2023-12-04T08:10:47;30.00;;;12.90;;
76896;SDS011;65856;52.178;21.176;2023-12-04T08:13:12;27.00;;;13.00;;
76896;SDS011;65856;52.178;21.176;2023-12-04T08:15:38;26.80;;;12.30;;
76896;SDS011;65856;52.178;21.176;2023-12-04T08:18:03;27.30;;;12.70;;
76896;SDS011;65856;52.178;21.176;2023-12-04T08:20:29;25.70;;;11.90;;
76896;SDS011;65856;52.178;21.176;2023-12-04T08:22:54;25.10;;;11.40;;
76896;SDS011;65856;52.178;21.176;2023-12-04T08:25:22;27.40;;;12.50;;
76896;SDS011;65856;52.178;21.176;2023-12-04T08:27:48;26.30;;;12.10;;
76896;SDS011;65856;52.178;21.176;2023-12-04T08:30:14;27.60;;;12.80;;
76896;SDS011;65856;52.178;21.176;2023-12-04T08:32:40;30.20;;;13.20;;
76896;SDS011;65856;52.178;21.176;2023-12-04T08:35:06;29.60;;;12.50;;
76896;SDS011;65856;52.178;21.176;2023-12-04T08:37:31;36.60;;;13.50;;
76896;SDS011;65856;52.178;21.176;2023-12-04T08:39:57;36.40;;;13.40;;
76896;SDS011;65856;52.178;21.176;2023-12-04T08:42:22;35.20;;;12.60;;
76896;SDS011;65856;52.178;21.176;2023-12-04T08:44:48;25.30;;;11.40;;
76896;SDS011;65856;52.178;21.176;2023-12-04T08:47:13;23.80;;;10.80;;
76896;SDS011;65856;52.178;21.176;2023-12-04T08:49:40;24.20;;;11.10;;
76896;SDS011;65856;52.178;21.176;2023-12-04T08:52:06;24.10;;;11.50;;
76896;SDS011;65856;52.178;21.176;2023-12-04T08:54:32;24.80;;;11.00;;
76896;SDS011;65856;52.178;21.176;2023-12-04T08:56:58;22.90;;;10.90;;
76896;SDS011;65856;52.178;21.176;2023-12-04T08:59:23;23.20;;;11.50;;
76896;SDS011;65856;52.178;21.176;2023-12-04T09:01:49;21.00;;;9.60;;
76896;SDS011;65856;52.178;21.176;2023-12-04T09:04:14;20.20;;;9.70;;
76896;SDS011;65856;52.178;21.176;2023-12-04T09:06:39;20.90;;;10.10;;
76896;SDS011;65856;52.178;21.176;2023-12-04T09:09:05;22.70;;;10.80;;
76896;SDS011;65856;52.178;21.176;2023-12-04T09:11:30;25.40;;;11.40;;
76896;SDS011;65856;52.178;21.176;2023-12-04T09:13:56;26.00;;;10.30;;
76896;SDS011;65856;52.178;21.176;2023-12-04T09:16:21;23.60;;;10.40;;
76896;SDS011;65856;52.178;21.176;2023-12-04T09:18:47;23.90;;;10.70;;
76896;SDS011;65856;52.178;21.176;2023-12-04T09:21:12;23.40;;;10.60;;
76896;SDS011;65856;52.178;21.176;2023-12-04T09:23:37;25.00;;;11.30;;
76896;SDS011;65856;52.178;21.176;2023-12-04T09:26:03;23.50;;;10.80;;
76896;SDS011;65856;52.178;21.176;2023-12-04T09:28:29;22.70;;;10.40;;
76896;SDS011;65856;52.178;21.176;2023-12-04T09:30:54;19.70;;;9.80;;
76896;SDS011;65856;52.178;21.176;2023-12-04T09:33:20;21.10;;;10.20;;
76896;SDS011;65856;52.178;21.176;2023-12-04T09:35:45;23.80;;;10.60;;
76896;SDS011;65856;52.178;21.176;2023-12-04T09:38:10;25.30;;;11.00;;
76896;SDS011;65856;52.178;21.176;2023-12-04T09:40:36;23.90;;;11.00;;
76896;SDS011;65856;52.178;21.176;2023-12-04T09:43:02;22.20;;;9.80;;
76896;SDS011;65856;52.178;21.176;2023-12-04T09:45:29;27.70;;;12.20;;
76896;SDS011;65856;52.178;21.176;2023-12-04T09:47:56;21.10;;;10.60;;
76896;SDS011;65856;52.178;21.176;2023-12-04T09:50:21;22.90;;;11.70;;
76896;SDS011;65856;52.178;21.176;2023-12-04T09:52:51;24.10;;;11.00;;
76896;SDS011;65856;52.178;21.176;2023-12-04T09:55:20;20.90;;;9.70;;
76896;SDS011;65856;52.178;21.176;2023-12-04T09:57:46;25.20;;;10.30;;
76896;SDS011;65856;52.178;21.176;2023-12-04T10:00:15;25.20;;;11.00;;
76896;SDS011;65856;52.178;21.176;2023-12-04T10:02:41;21.00;;;10.00;;
76896;SDS011;65856;52.178;21.176;2023-12-04T10:05:08;20.60;;;9.50;;
76896;SDS011;65856;52.178;21.176;2023-12-04T10:07:34;20.40;;;8.30;;
76896;SDS011;65856;52.178;21.176;2023-12-04T10:09:59;18.80;;;9.10;;
76896;SDS011;65856;52.178;21.176;2023-12-04T10:12:25;17.80;;;8.30;;
76896;SDS011;65856;52.178;21.176;2023-12-04T10:17:35;18.00;;;8.90;;
76896;SDS011;65856;52.178;21.176;2023-12-04T10:20:10;22.90;;;10.50;;
76896;SDS011;65856;52.178;21.176;2023-12-04T10:22:52;21.40;;;9.30;;
76896;SDS011;65856;52.178;21.176;2023-12-04T10:25:18;23.70;;;10.50;;
76896;SDS011;65856;52.178;21.176;2023-12-04T10:27:45;24.40;;;10.50;;
76896;SDS011;65856;52.178;21.176;2023-12-04T10:30:28;23.80;;;10.80;;
76896;SDS011;65856;52.178;21.176;2023-12-04T10:33:01;21.90;;;10.50;;
76896;SDS011;65856;52.178;21.176;2023-12-04T10:37:56;21.70;;;9.90;;
76896;SDS011;65856;52.178;21.176;2023-12-04T10:40:35;28.10;;;12.10;;
76896;SDS011;65856;52.178;21.176;2023-12-04T10:43:18;22.70;;;11.30;;
76896;SDS011;65856;52.178;21.176;2023-12-04T10:45:48;26.70;;;12.30;;
76896;SDS011;65856;52.178;21.176;2023-12-04T10:48:15;22.80;;;11.10;;
76896;SDS011;65856;52.178;21.176;2023-12-04T10:50:44;27.00;;;12.60;;
76896;SDS011;65856;52.178;21.176;2023-12-04T10:53:12;24.30;;;11.40;;
76896;SDS011;65856;52.178;21.176;2023-12-04T10:55:39;23.40;;;11.50;;
76896;SDS011;65856;52.178;21.176;2023-12-04T10:58:15;21.80;;;11.10;;
76896;SDS011;65856;52.178;21.176;2023-12-04T11:00:46;20.90;;;9.70;;
76896;SDS011;65856;52.178;21.176;2023-12-04T11:03:18;29.70;;;12.00;;
76896;SDS011;65856;52.178;21.176;2023-12-04T11:06:00;27.20;;;11.90;;
76896;SDS011;65856;52.178;21.176;2023-12-04T11:08:28;24.60;;;11.50;;
76896;SDS011;65856;52.178;21.176;2023-12-04T11:11:05;26.20;;;11.80;;
76896;SDS011;65856;52.178;21.176;2023-12-04T11:13:42;26.70;;;12.10;;
76896;SDS011;65856;52.178;21.176;2023-12-04T11:19:32;27.30;;;12.00;;
76896;SDS011;65856;52.178;21.176;2023-12-04T11:22:02;27.60;;;12.30;;
76896;SDS011;65856;52.178;21.176;2023-12-04T11:24:28;26.60;;;12.20;;
76896;SDS011;65856;52.178;21.176;2023-12-04T11:26:54;26.10;;;12.60;;
76896;SDS011;65856;52.178;21.176;2023-12-04T11:29:21;27.10;;;12.50;;
76896;SDS011;65856;52.178;21.176;2023-12-04T11:31:47;24.00;;;11.90;;
76896;SDS011;65856;52.178;21.176;2023-12-04T11:34:12;25.80;;;11.10;;
76896;SDS011;65856;52.178;21.176;2023-12-04T11:36:38;25.50;;;12.00;;
76896;SDS011;65856;52.178;21.176;2023-12-04T11:39:08;26.90;;;12.20;;
76896;SDS011;65856;52.178;21.176;2023-12-04T11:41:36;24.10;;;10.90;;
76896;SDS011;65856;52.178;21.176;2023-12-04T11:44:02;24.50;;;11.40;;
76896;SDS011;65856;52.178;21.176;2023-12-04T11:46:29;23.60;;;10.80;;
76896;SDS011;65856;52.178;21.176;2023-12-04T11:49:27;25.00;;;11.20;;
76896;SDS011;65856;52.178;21.176;2023-12-04T11:52:00;22.90;;;10.70;;
76896;SDS011;65856;52.178;21.176;2023-12-04T11:54:59;25.10;;;10.20;;
76896;SDS011;65856;52.178;21.176;2023-12-04T11:57:32;20.70;;;10.50;;
76896;SDS011;65856;52.178;21.176;2023-12-04T12:03:01;26.20;;;11.20;;
76896;SDS011;65856;52.178;21.176;2023-12-04T12:05:30;21.40;;;10.40;;
76896;SDS011;65856;52.178;21.176;2023-12-04T12:07:59;29.70;;;11.50;;
76896;SDS011;65856;52.178;21.176;2023-12-04T12:10:27;22.00;;;9.90;;
76896;SDS011;65856;52.178;21.176;2023-12-04T12:12:53;26.00;;;10.40;;
76896;SDS011;65856;52.178;21.176;2023-12-04T12:15:18;23.40;;;11.00;;
76896;SDS011;65856;52.178;21.176;2023-12-04T12:17:44;25.30;;;11.10;;
76896;SDS011;65856;52.178;21.176;2023-12-04T12:20:11;24.70;;;10.50;;
76896;SDS011;65856;52.178;21.176;2023-12-04T12:22:38;27.50;;;11.00;;
76896;SDS011;65856;52.178;21.176;2023-12-04T12:25:10;27.10;;;11.30;;
76896;SDS011;65856;52.178;21.176;2023-12-04T12:27:37;28.60;;;11.80;;
76896;SDS011;65856;52.178;21.176;2023-12-04T12:30:03;22.80;;;11.20;;
76896;SDS011;65856;52.178;21.176;2023-12-04T12:32:33;26.10;;;11.30;;
76896;SDS011;65856;52.178;21.176;2023-12-04T12:34:59;20.20;;;9.90;;
76896;SDS011;65856;52.178;21.176;2023-12-04T12:37:25;24.70;;;11.20;;
76896;SDS011;65856;52.178;21.176;2023-12-04T12:39:51;24.10;;;10.40;;
76896;SDS011;65856;52.178;21.176;2023-12-04T12:42:25;28.50;;;12.00;;
76896;SDS011;65856;52.178;21.176;2023-12-04T12:44:52;27.00;;;11.20;;
76896;SDS011;65856;52.178;21.176;2023-12-04T12:47:18;28.30;;;12.50;;
76896;SDS011;65856;52.178;21.176;2023-12-04T12:49:45;29.10;;;13.10;;
76896;SDS011;65856;52.178;21.176;2023-12-04T12:52:10;29.70;;;13.30;;
76896;SDS011;65856;52.178;21.176;2023-12-04T12:54:37;27.30;;;12.70;;
76896;SDS011;65856;52.178;21.176;2023-12-04T12:57:03;25.60;;;12.60;;
76896;SDS011;65856;52.178;21.176;2023-12-04T12:59:29;25.00;;;12.00;;
76896;SDS011;65856;52.178;21.176;2023-12-04T13:01:55;25.90;;;12.10;;
76896;SDS011;65856;52.178;21.176;2023-12-04T13:04:22;27.10;;;11.40;;
76896;SDS011;65856;52.178;21.176;2023-12-04T13:06:48;22.00;;;10.40;;
76896;SDS011;65856;52.178;21.176;2023-12-04T13:09:13;24.20;;;11.10;;
76896;SDS011;65856;52.178;21.176;2023-12-04T13:11:46;22.80;;;10.50;;
76896;SDS011;65856;52.178;21.176;2023-12-04T13:14:12;24.60;;;11.20;;
76896;SDS011;65856;52.178;21.176;2023-12-04T13:16:38;25.40;;;11.00;;
76896;SDS011;65856;52.178;21.176;2023-12-04T13:19:05;25.50;;;10.50;;
76896;SDS011;65856;52.178;21.176;2023-12-04T13:21:30;23.80;;;9.50;;
76896;SDS011;65856;52.178;21.176;2023-12-04T13:23:56;20.10;;;9.40;;
76896;SDS011;65856;52.178;21.176;2023-12-04T13:26:22;20.70;;;10.40;;
76896;SDS011;65856;52.178;21.176;2023-12-04T13:28:47;22.10;;;9.90;;
76896;SDS011;65856;52.178;21.176;2023-12-04T13:31:13;21.40;;;10.00;;
76896;SDS011;65856;52.178;21.176;2023-12-04T13:33:38;19.70;;;9.70;;
76896;SDS011;65856;52.178;21.176;2023-12-04T13:36:04;23.30;;;9.90;;
76896;SDS011;65856;52.178;21.176;2023-12-04T13:38:30;21.30;;;10.40;;
76896;SDS011;65856;52.178;21.176;2023-12-04T13:40:56;22.60;;;9.70;;
76896;SDS011;65856;52.178;21.176;2023-12-04T13:43:27;23.30;;;10.80;;
76896;SDS011;65856;52.178;21.176;2023-12-04T13:46:11;21.20;;;9.30;;
76896;SDS011;65856;52.178;21.176;2023-12-04T13:48:37;23.70;;;10.60;;
76896;SDS011;65856;52.178;21.176;2023-12-04T13:51:10;21.40;;;10.30;;
76896;SDS011;65856;52.178;21.176;2023-12-04T13:53:36;20.00;;;10.50;;
76896;SDS011;65856;52.178;21.176;2023-12-04T13:56:15;22.10;;;10.30;;
76896;SDS011;65856;52.178;21.176;2023-12-04T13:58:49;20.30;;;10.00;;
76896;SDS011;65856;52.178;21.176;2023-12-04T14:01:25;23.80;;;9.90;;
76896;SDS011;65856;52.178;21.176;2023-12-04T14:03:54;23.00;;;11.00;;
76896;SDS011;65856;52.178;21.176;2023-12-04T14:06:21;21.40;;;10.70;;
76896;SDS011;65856;52.178;21.176;2023-12-04T14:08:47;21.50;;;10.10;;
76896;SDS011;65856;52.178;21.176;2023-12-04T14:11:12;22.70;;;10.70;;
76896;SDS011;65856;52.178;21.176;2023-12-04T14:13:40;24.50;;;11.20;;
76896;SDS011;65856;52.178;21.176;2023-12-04T14:16:06;26.50;;;11.00;;
76896;SDS011;65856;52.178;21.176;2023-12-04T14:18:31;24.70;;;11.10;;
76896;SDS011;65856;52.178;21.176;2023-12-04T14:20:57;23.40;;;11.00;;
76896;SDS011;65856;52.178;21.176;2023-12-04T14:23:23;22.60;;;10.50;;